createdAt,value
2018-09-08T00:00:55.919Z,92.20
2018-09-08T00:03:24.260Z,92.60
2018-09-08T00:05:52.674Z,92.30
2018-09-08T00:08:21.201Z,92.70
2018-09-08T00:10:49.515Z,92.40
2018-09-08T00:13:17.924Z,92.40
2018-09-08T00:15:51.611Z,92.30
2018-09-08T00:18:25.289Z,92.20
2018-09-08T00:20:59.035Z,92.10
2018-09-08T00:23:32.595Z,92.10
2018-09-08T00:26:06.418Z,92.10
2018-09-08T00:28:40.222Z,92.00
2018-09-08T00:31:12.310Z,91.90
2018-09-08T00:33:40.854Z,92.30
2018-09-08T00:36:09.222Z,91.80
2018-09-08T00:38:37.619Z,91.80
2018-09-08T00:41:06.140Z,91.50
2018-09-08T00:43:34.490Z,92.30
2018-09-08T00:46:02.935Z,91.90
2018-09-08T00:48:31.405Z,92.20
2018-09-08T00:50:59.948Z,91.80
2018-09-08T00:53:28.406Z,91.40
2018-09-08T00:55:56.802Z,91.20
2018-09-08T00:58:25.352Z,91.10
2018-09-08T01:00:53.767Z,91.50
2018-09-08T01:03:22.191Z,91.10
2018-09-08T01:08:18.739Z,91.40
2018-09-08T01:10:47.114Z,91.80
2018-09-08T01:13:15.477Z,91.70
2018-09-08T01:15:43.940Z,92.10
2018-09-08T01:18:12.317Z,91.70
2018-09-08T01:20:40.712Z,92.40
2018-09-08T01:23:09.943Z,92.00
2018-09-08T01:25:38.768Z,91.80
2018-09-08T01:28:07.272Z,91.50
2018-09-08T01:33:04.055Z,91.60
2018-09-08T01:40:23.733Z,91.80
2018-09-08T01:42:52.056Z,91.90
2018-09-08T01:45:20.434Z,92.00
2018-09-08T01:47:48.834Z,91.90
2018-09-08T01:50:17.238Z,92.00
2018-09-08T01:52:45.603Z,92.00
2018-09-08T01:55:14.059Z,92.00
2018-09-08T01:58:45.320Z,92.40
2018-09-08T02:01:13.710Z,91.80
2018-09-08T02:03:42.334Z,91.70
2018-09-08T02:06:10.754Z,91.70
2018-09-08T02:08:39.346Z,92.10
2018-09-08T02:11:07.907Z,92.20
2018-09-08T02:13:36.334Z,92.30
2018-09-08T02:16:04.762Z,92.30
2018-09-08T02:18:33.298Z,91.90
2018-09-08T02:23:29.793Z,91.60
2018-09-08T02:25:58.234Z,91.30
2018-09-08T02:28:26.540Z,91.50
2018-09-08T02:30:55.022Z,91.40
2018-09-08T02:33:23.317Z,91.00
2018-09-08T02:35:51.724Z,90.90
2018-09-08T02:38:20.134Z,91.30
2018-09-08T02:40:48.597Z,90.90
2018-09-08T02:43:16.948Z,90.80
2018-09-08T02:45:45.368Z,91.10
2018-09-08T02:48:13.721Z,90.50
2018-09-08T02:50:41.913Z,90.50
2018-09-08T03:00:33.689Z,90.50
2018-09-08T03:03:00.988Z,90.80
2018-09-08T03:05:28.299Z,90.70
2018-09-08T03:07:55.568Z,89.50
2018-09-08T03:10:22.994Z,89.50
2018-09-08T03:12:50.316Z,89.80
2018-09-08T03:15:17.623Z,89.70
2018-09-08T03:17:44.970Z,89.50
2018-09-08T03:20:12.244Z,90.10
2018-09-08T03:22:39.631Z,90.10
2018-09-08T03:25:06.904Z,88.90
2018-09-08T03:27:34.215Z,88.60
2018-09-08T03:30:01.527Z,88.60
2018-09-08T03:32:28.837Z,89.00
2018-09-08T03:34:56.146Z,89.30
2018-09-08T03:37:23.410Z,89.30
2018-09-08T03:39:50.660Z,89.30
2018-09-08T03:42:17.930Z,90.10
2018-09-08T03:44:45.265Z,90.20
2018-09-08T03:47:12.555Z,89.40
2018-09-08T03:49:39.837Z,89.70
2018-09-08T03:52:07.135Z,89.30
2018-09-08T03:54:34.438Z,89.30
2018-09-08T03:57:01.731Z,89.40
2018-09-08T03:59:29.019Z,89.80
2018-09-08T04:04:24.980Z,90.40
2018-09-08T04:06:53.352Z,90.70
2018-09-08T04:09:21.754Z,90.30
2018-09-08T04:11:50.280Z,88.60
2018-09-08T04:14:18.669Z,89.30
2018-09-08T04:16:47.144Z,89.10
2018-09-08T04:19:15.592Z,89.00
2018-09-08T04:21:43.948Z,87.30
2018-09-08T04:24:12.339Z,86.50
2018-09-08T04:26:40.705Z,86.60
2018-09-08T04:29:09.080Z,87.90
2018-09-08T04:31:37.551Z,88.50
2018-09-08T04:34:05.912Z,87.50
2018-09-08T04:36:34.308Z,87.50
2018-09-08T04:39:02.754Z,87.90
2018-09-08T04:41:31.312Z,88.40
2018-09-08T04:43:59.674Z,89.40
2018-09-08T04:46:28.061Z,90.20
2018-09-08T04:48:56.432Z,91.00
2018-09-08T04:51:24.840Z,90.10
2018-09-08T04:53:53.278Z,90.60
2018-09-08T04:56:21.625Z,91.10
2018-09-08T04:58:50.189Z,91.40
2018-09-08T05:03:47.355Z,91.90
2018-09-08T05:06:15.738Z,92.10
2018-09-08T05:08:44.159Z,92.40
2018-09-08T05:13:40.570Z,93.00
2018-09-08T05:16:09.073Z,93.60
2018-09-08T05:18:37.489Z,93.90
2018-09-08T05:21:05.893Z,94.30
2018-09-08T05:23:34.244Z,94.90
2018-09-08T05:26:02.680Z,95.10
2018-09-08T05:28:31.219Z,94.90
2018-09-08T05:30:59.611Z,94.90
2018-09-08T05:33:28.094Z,95.10
2018-09-08T05:35:56.575Z,95.50
2018-09-08T05:38:24.934Z,95.60
2018-09-08T05:40:53.295Z,96.00
2018-09-08T05:43:21.669Z,95.60
2018-09-08T05:45:50.493Z,95.30
2018-09-08T05:48:18.883Z,95.10
2018-09-08T05:50:47.407Z,95.10
2018-09-08T05:53:15.797Z,95.20
2018-09-08T05:55:44.142Z,95.00
2018-09-08T05:58:12.382Z,95.00
2018-09-08T06:00:40.761Z,94.80
2018-09-08T06:03:09.100Z,96.10
2018-09-08T06:05:37.655Z,94.80
2018-09-08T06:08:05.852Z,94.80
2018-09-08T06:10:34.120Z,94.40
2018-09-08T06:13:02.565Z,94.30
2018-09-08T06:15:31.317Z,94.20
2018-09-08T06:17:59.699Z,94.10
2018-09-08T06:20:28.165Z,93.90
2018-09-08T06:22:57.551Z,94.20
2018-09-08T06:25:25.826Z,94.20
2018-09-08T06:27:54.048Z,94.50
2018-09-08T06:30:22.406Z,94.40
2018-09-08T06:32:50.770Z,94.20
2018-09-08T06:35:19.251Z,94.50
2018-09-08T06:37:47.351Z,94.40
2018-09-08T06:40:15.631Z,94.70
2018-09-08T06:42:43.986Z,94.50
2018-09-08T06:45:12.354Z,94.40
2018-09-08T06:47:40.547Z,94.40
2018-09-08T06:50:08.779Z,94.20
2018-09-08T06:52:36.989Z,94.00
2018-09-08T06:55:05.403Z,94.30
2018-09-08T06:57:33.646Z,94.30
2018-09-08T07:00:01.893Z,95.50
2018-09-08T07:02:30.175Z,94.30
2018-09-08T07:04:58.386Z,94.70
2018-09-08T07:07:26.717Z,94.60
2018-09-08T07:09:54.944Z,93.80
2018-09-08T07:12:23.311Z,93.40
2018-09-08T07:14:51.507Z,93.80
2018-09-08T07:17:19.739Z,93.40
2018-09-08T07:19:48.051Z,93.20
2018-09-08T07:22:16.311Z,92.00
2018-09-08T07:24:44.556Z,92.10
2018-09-08T07:27:12.759Z,91.50
2018-09-08T07:29:41.004Z,91.90
2018-09-08T07:32:09.271Z,91.50
2018-09-08T07:34:37.522Z,90.80
2018-09-08T07:37:05.810Z,88.80
2018-09-08T07:39:34.056Z,89.30
2018-09-08T07:42:02.287Z,87.90
2018-09-08T07:44:30.585Z,86.80
2018-09-08T07:46:58.876Z,83.30
2018-09-08T07:49:27.082Z,83.10
2018-09-08T07:51:55.307Z,83.90
2018-09-08T07:54:23.597Z,85.70
2018-09-08T07:57:55.314Z,84.00
2018-09-08T08:01:26.928Z,84.80
2018-09-08T08:03:55.275Z,84.70
2018-09-08T08:06:23.493Z,85.30
2018-09-08T08:08:52.235Z,84.70
2018-09-08T08:13:48.891Z,82.30
2018-09-08T08:16:17.077Z,82.60
2018-09-08T08:18:45.268Z,77.90
2018-09-08T08:21:13.483Z,81.90
2018-09-08T08:23:41.760Z,81.80
2018-09-08T08:26:09.946Z,79.90
2018-09-08T08:28:38.260Z,81.10
2018-09-08T08:31:06.619Z,78.90
2018-09-08T08:33:34.828Z,78.90
2018-09-08T08:36:03.199Z,77.80
2018-09-08T08:38:31.620Z,76.00
2018-09-08T08:41:00.055Z,76.10
2018-09-08T08:43:28.336Z,73.50
2018-09-08T08:45:56.624Z,71.70
2018-09-08T08:48:24.983Z,70.30
2018-09-08T08:51:04.751Z,69.60
2018-09-08T08:53:44.395Z,71.80
2018-09-08T08:58:40.708Z,73.50
2018-09-08T09:03:36.986Z,72.10
2018-09-08T09:06:05.278Z,71.50
2018-09-08T09:08:34.074Z,71.50
2018-09-08T09:11:01.718Z,70.90
2018-09-08T09:13:30.008Z,73.10
2018-09-08T09:15:58.209Z,72.20
2018-09-08T09:18:38.840Z,70.40
2018-09-08T09:21:18.064Z,69.20
2018-09-08T09:24:25.836Z,66.40
2018-09-08T09:26:53.527Z,69.90
2018-09-08T09:29:21.782Z,67.80
2018-09-08T09:31:50.047Z,63.50
2018-09-08T09:34:18.358Z,66.70
2018-09-08T09:36:46.632Z,65.10
2018-09-08T09:39:14.871Z,65.10
2018-09-08T09:41:43.421Z,61.90
2018-09-08T09:44:12.164Z,61.80
2018-09-08T09:46:40.522Z,64.40
2018-09-08T09:49:08.742Z,64.70
2018-09-08T09:51:37.054Z,63.00
2018-09-08T09:54:05.315Z,63.80
2018-09-08T09:56:33.707Z,64.50
2018-09-08T09:59:02.023Z,66.70
2018-09-08T10:01:35.835Z,64.40
2018-09-08T10:04:04.087Z,63.50
2018-09-08T10:06:32.390Z,62.00
2018-09-08T10:09:00.710Z,71.30
2018-09-08T10:11:29.010Z,65.00
2018-09-08T10:16:25.297Z,64.60
2018-09-08T10:18:53.543Z,65.00
2018-09-08T10:21:21.810Z,65.30
2018-09-08T10:24:04.340Z,63.40
2018-09-08T10:26:18.467Z,63.60
2018-09-08T10:28:46.619Z,63.40
2018-09-08T10:31:14.803Z,60.30
2018-09-08T10:33:44.102Z,61.00
2018-09-08T10:36:12.387Z,64.00
2018-09-08T10:38:40.643Z,62.30
2018-09-08T10:41:08.830Z,63.10
2018-09-08T10:43:37.119Z,58.90
2018-09-08T10:46:05.465Z,59.10
2018-09-08T10:48:33.872Z,60.20
2018-09-08T10:51:19.316Z,59.40
2018-09-08T10:53:48.583Z,59.90
2018-09-08T10:56:16.818Z,60.00
2018-09-08T10:58:45.183Z,59.90
2018-09-08T11:01:13.440Z,60.60
2018-09-08T11:03:41.949Z,60.00
2018-09-08T11:06:10.393Z,61.00
2018-09-08T11:08:38.865Z,60.50
2018-09-08T11:11:07.346Z,62.80
2018-09-08T11:13:35.837Z,62.60
2018-09-08T11:16:04.489Z,60.00
2018-09-08T11:18:32.964Z,61.20
2018-09-08T11:21:01.433Z,60.20
2018-09-08T11:25:58.133Z,60.70
2018-09-08T11:28:26.587Z,61.70
2018-09-08T11:30:55.062Z,62.00
2018-09-08T11:33:23.330Z,59.20
2018-09-08T11:35:51.847Z,61.20
2018-09-08T11:38:20.182Z,60.50
2018-09-08T11:40:48.355Z,59.60
2018-09-08T11:43:16.605Z,59.60
2018-09-08T11:45:44.910Z,59.90
2018-09-08T11:48:13.204Z,57.30
2018-09-08T11:50:41.503Z,59.10
2018-09-08T11:53:09.750Z,58.60
2018-09-08T11:55:38.091Z,56.40
2018-09-08T11:58:06.219Z,57.90
2018-09-08T12:00:34.396Z,58.60
2018-09-08T12:03:02.679Z,57.50
2018-09-08T12:05:30.823Z,58.30
2018-09-08T12:07:59.032Z,57.40
2018-09-08T12:10:27.236Z,58.10
2018-09-08T12:12:55.448Z,62.60
2018-09-08T12:15:23.685Z,61.00
2018-09-08T12:17:51.979Z,57.60
2018-09-08T12:27:44.200Z,58.20
2018-09-08T12:30:12.428Z,57.00
2018-09-08T12:32:40.715Z,57.20
2018-09-08T12:35:09.028Z,57.90
2018-09-08T12:37:37.263Z,57.90
2018-09-08T12:40:05.708Z,59.70
2018-09-08T12:42:34.143Z,57.40
2018-09-08T12:45:02.749Z,57.80
2018-09-08T12:47:31.215Z,59.60
2018-09-08T12:49:59.810Z,58.20
2018-09-08T12:52:28.234Z,58.20
2018-09-08T12:54:56.668Z,59.10
2018-09-08T12:57:25.257Z,58.20
2018-09-08T12:59:53.741Z,58.40
2018-09-08T13:02:22.227Z,57.20
2018-09-08T13:04:50.796Z,58.50
2018-09-08T13:07:19.385Z,59.00
2018-09-08T13:09:47.860Z,58.20
2018-09-08T13:12:16.439Z,58.80
2018-09-08T13:14:44.913Z,57.70
2018-09-08T13:17:13.480Z,57.80
2018-09-08T13:19:42.018Z,58.00
2018-09-08T13:22:10.658Z,58.60
2018-09-08T13:24:39.190Z,59.20
2018-09-08T13:32:10.490Z,57.60
2018-09-08T13:34:39.033Z,57.90
2018-09-08T13:37:07.723Z,57.40
2018-09-08T13:39:36.192Z,56.20
2018-09-08T13:42:04.628Z,57.90
2018-09-08T13:44:33.130Z,56.30
2018-09-08T13:47:01.717Z,56.20
2018-09-08T13:49:30.045Z,56.60
2018-09-08T13:54:26.658Z,57.30
2018-09-08T13:56:55.098Z,55.70
2018-09-08T13:59:23.593Z,55.90
2018-09-08T14:04:20.403Z,56.20
2018-09-08T14:06:48.956Z,56.70
2018-09-08T14:09:17.347Z,56.60
2018-09-08T14:11:45.974Z,56.60
2018-09-08T14:14:14.448Z,56.70
2018-09-08T14:16:42.914Z,55.10
2018-09-08T14:19:11.281Z,55.40
2018-09-08T14:21:39.789Z,55.10
2018-09-08T14:26:36.418Z,55.40
2018-09-08T14:29:05.028Z,57.10
2018-09-08T14:36:29.840Z,56.50
2018-09-08T14:38:58.416Z,57.00
2018-09-08T14:41:26.975Z,56.50
2018-09-08T14:43:55.404Z,57.90
2018-09-08T14:46:23.969Z,57.90
2018-09-08T14:51:20.617Z,58.50
2018-09-08T14:53:49.065Z,58.90
2018-09-08T14:56:17.626Z,58.30
2018-09-08T14:58:46.021Z,57.60
2018-09-08T15:01:14.461Z,57.00
2018-09-08T15:03:42.950Z,56.00
2018-09-08T15:06:11.430Z,57.80
2018-09-08T15:08:40.027Z,57.40
2018-09-08T15:11:08.548Z,57.10
2018-09-08T15:13:37.131Z,57.20
2018-09-08T15:16:05.607Z,56.10
2018-09-08T15:18:34.067Z,56.80
2018-09-08T15:21:02.637Z,56.90
2018-09-08T15:23:31.261Z,57.90
2018-09-08T15:25:59.818Z,57.10
2018-09-08T15:28:28.312Z,57.80
2018-09-08T15:33:25.062Z,57.50
2018-09-08T15:35:53.569Z,57.20
2018-09-08T15:38:22.029Z,57.60
2018-09-08T15:40:50.523Z,56.90
2018-09-08T15:45:47.493Z,56.80
2018-09-08T15:48:16.047Z,56.80
2018-09-08T15:50:44.547Z,56.70
2018-09-08T15:53:13.146Z,57.10
2018-09-08T15:58:10.092Z,58.40
2018-09-08T16:00:38.556Z,58.50
2018-09-08T16:03:07.168Z,58.30
2018-09-08T16:05:35.737Z,58.00
2018-09-08T16:08:05.464Z,58.50
2018-09-08T16:10:36.841Z,58.70
2018-09-08T16:13:06.126Z,58.40
2018-09-08T16:15:34.788Z,58.40
2018-09-08T16:19:06.149Z,59.00
2018-09-08T16:21:34.770Z,58.50
2018-09-08T16:24:03.319Z,59.20
2018-09-08T16:26:32.593Z,58.70
2018-09-08T16:29:01.222Z,58.80
2018-09-08T16:31:29.957Z,59.20
2018-09-08T16:33:58.505Z,59.00
2018-09-08T16:36:27.154Z,59.80
2018-09-08T16:38:55.718Z,59.90
2018-09-08T16:41:24.710Z,60.20
2018-09-08T16:43:53.307Z,60.80
2018-09-08T16:46:21.804Z,60.70
2018-09-08T16:48:50.329Z,60.40
2018-09-08T16:51:18.868Z,60.80
2018-09-08T16:53:47.299Z,61.30
2018-09-08T16:56:15.909Z,61.50
2018-09-08T16:58:44.388Z,62.40
2018-09-08T17:01:13.095Z,63.30
2018-09-08T17:03:41.621Z,63.80
2018-09-08T17:06:10.128Z,63.00
2018-09-08T17:08:38.541Z,63.80
2018-09-08T17:11:07.099Z,63.90
2018-09-08T17:15:04.890Z,65.30
2018-09-08T17:17:33.442Z,64.30
2018-09-08T17:20:01.955Z,65.20
2018-09-08T17:22:30.502Z,64.20
2018-09-08T17:24:59.031Z,65.00
2018-09-08T17:27:27.491Z,66.20
2018-09-08T17:29:55.937Z,66.50
2018-09-08T17:32:24.619Z,67.40
2018-09-08T17:34:53.080Z,67.40
2018-09-08T17:37:21.588Z,67.90
2018-09-08T18:11:00.131Z,73.00
2018-09-08T18:13:28.572Z,73.80
2018-09-08T18:15:56.995Z,74.10
2018-09-08T18:18:25.319Z,74.40
2018-09-08T18:20:53.706Z,74.80
2018-09-08T18:23:22.031Z,75.00
2018-09-08T18:25:50.508Z,75.40
2018-09-08T18:28:18.859Z,75.40
2018-09-08T18:30:47.305Z,76.30
2018-09-08T18:33:15.731Z,76.70
2018-09-08T18:35:44.185Z,77.00
2018-09-08T18:38:12.590Z,77.00
2018-09-08T18:43:09.106Z,76.60
2018-09-08T18:45:37.503Z,77.40
2018-09-08T18:48:05.920Z,77.40
2018-09-08T18:50:34.235Z,77.40
2018-09-08T18:53:02.636Z,77.60
2018-09-08T18:55:31.118Z,77.60
2018-09-08T18:57:59.494Z,77.70
2018-09-08T19:00:27.839Z,78.60
2018-09-08T19:02:56.245Z,79.40
2018-09-08T19:05:24.732Z,80.00
2018-09-08T19:07:53.155Z,80.30
2018-09-08T19:10:21.561Z,80.60
2018-09-08T19:12:49.995Z,81.60
2018-09-08T19:15:18.972Z,82.30
2018-09-08T19:17:47.290Z,81.50
2018-09-08T19:20:20.983Z,82.20
2018-09-08T19:22:49.398Z,81.10
2018-09-08T19:25:17.765Z,80.30
2018-09-08T19:27:46.161Z,80.30
2018-09-08T19:30:14.524Z,80.40
2018-09-08T19:32:42.925Z,79.30
2018-09-08T19:35:16.671Z,79.10
2018-09-08T19:37:45.047Z,79.10
2018-09-08T19:40:18.767Z,79.80
2018-09-08T19:42:47.144Z,80.40
2018-09-08T19:45:15.556Z,80.60
2018-09-08T19:47:49.215Z,80.30
2018-09-08T19:50:17.532Z,80.20
2018-09-08T19:52:51.076Z,80.80
2018-09-08T19:55:19.448Z,80.40
2018-09-08T19:57:53.161Z,80.00
2018-09-08T20:02:49.462Z,80.30
2018-09-08T20:05:17.747Z,80.70
2018-09-08T20:07:46.163Z,81.40
2018-09-08T20:10:14.485Z,82.60
2018-09-08T20:12:42.800Z,83.50
2018-09-08T20:15:11.119Z,83.20
2018-09-08T20:17:39.403Z,84.10
2018-09-08T20:20:07.679Z,83.50
2018-09-08T20:22:35.959Z,84.30
2018-09-08T20:25:04.351Z,83.10
2018-09-08T20:27:32.677Z,82.20
2018-09-08T20:30:01.000Z,82.50
2018-09-08T20:32:29.299Z,81.50
2018-09-08T20:36:00.823Z,81.60
2018-09-08T20:38:29.251Z,81.70
2018-09-08T20:40:57.528Z,81.60
2018-09-08T20:43:25.759Z,80.60
2018-09-08T20:45:54.068Z,81.40
2018-09-08T20:48:22.366Z,81.00
2018-09-08T20:50:50.604Z,80.90
2018-09-08T20:53:18.814Z,82.00
2018-09-08T20:55:47.142Z,83.40
2018-09-08T20:58:15.331Z,82.10
2018-09-08T21:00:43.619Z,81.60
2018-09-08T21:03:11.900Z,81.90
2018-09-08T21:08:08.325Z,80.50
2018-09-08T21:10:36.618Z,79.90
2018-09-08T21:13:05.129Z,79.70
2018-09-08T21:15:33.528Z,80.50
2018-09-08T21:18:01.855Z,80.50
2018-09-08T21:20:30.356Z,80.50
2018-09-08T21:22:58.751Z,80.80
2018-09-08T21:25:27.208Z,81.10
2018-09-08T21:27:55.553Z,80.90
2018-09-08T21:30:23.791Z,81.40
2018-09-08T21:32:52.239Z,81.40
2018-09-08T21:35:20.552Z,82.20
2018-09-08T21:37:48.980Z,80.50
2018-09-08T21:40:17.262Z,81.70
2018-09-08T21:42:45.507Z,82.00
2018-09-08T21:45:13.796Z,81.90
2018-09-08T21:47:42.051Z,81.60
2018-09-08T21:50:10.407Z,81.10
2018-09-08T21:52:45.360Z,79.60
2018-09-08T21:55:13.571Z,80.40
2018-09-08T21:57:41.778Z,80.90
2018-09-08T22:00:10.005Z,81.10
2018-09-08T22:02:38.251Z,79.60
2018-09-08T22:05:06.570Z,79.20
2018-09-08T22:07:34.803Z,78.90
2018-09-08T22:10:03.174Z,79.20
2018-09-08T22:12:31.323Z,78.80
2018-09-08T22:14:59.550Z,79.00
2018-09-08T22:17:27.730Z,79.50
2018-09-08T22:19:56.119Z,79.20
2018-09-08T22:22:24.854Z,79.90
2018-09-08T22:24:53.131Z,80.30
2018-09-08T22:27:21.314Z,80.50
2018-09-08T22:29:49.539Z,80.70
2018-09-08T22:32:17.827Z,80.80
2018-09-08T22:34:46.024Z,80.10
2018-09-08T22:37:14.245Z,80.90
2018-09-08T22:39:42.645Z,80.70
2018-09-08T22:42:10.926Z,80.90
2018-09-08T22:44:39.178Z,81.80
2018-09-08T22:47:14.268Z,81.60
2018-09-08T22:49:42.545Z,82.20
2018-09-08T22:52:10.953Z,81.20
2018-09-08T22:54:39.266Z,81.40
2018-09-08T22:57:07.649Z,81.00
2018-09-08T22:59:35.885Z,81.80
2018-09-08T23:02:04.301Z,81.30
2018-09-08T23:04:32.541Z,79.90
2018-09-08T23:07:00.726Z,79.50
2018-09-08T23:09:29.051Z,79.40
2018-09-08T23:11:57.363Z,79.30
2018-09-08T23:14:25.621Z,79.70
2018-09-08T23:16:53.831Z,80.00
2018-09-08T23:21:50.031Z,80.20
2018-09-08T23:24:18.388Z,80.90
2018-09-08T23:26:46.696Z,80.10
2018-09-08T23:29:14.923Z,81.00
2018-09-08T23:31:43.118Z,81.10
2018-09-08T23:34:11.414Z,81.10
2018-09-08T23:36:39.723Z,80.70
2018-09-08T23:39:08.049Z,80.70
2018-09-08T23:41:36.388Z,80.90
2018-09-08T23:44:04.729Z,81.00
2018-09-08T23:46:33.094Z,81.40
2018-09-08T23:49:01.298Z,81.60
2018-09-08T23:51:29.618Z,81.80
2018-09-08T23:53:57.832Z,81.40
2018-09-08T23:56:26.112Z,81.20
2018-09-08T23:58:54.382Z,80.40
